Time;durP1;ratioP1;P1;durP2;ratioP2;P2;SDS_P1;SDS_P2;PMS_P1;PMS_P2;Temp;Humidity;BMP_temperature;BMP_pressure;BME280_temperature;BME280_humidity;BME280_pressure;Samples;Min_cycle;Max_cycle;Signal;HPM_P1;HPM_P2
2023/06/10 00:01:57;;;;;;;275.65;263.27;;;15.00;99.90;;;;;;5074624;28;20043;-79
2023/06/10 00:04:23;;;;;;;266.20;253.98;;;14.90;99.90;;;;;;5071068;28;20108;-79
2023/06/10 00:06:49;;;;;;;245.23;234.45;;;14.90;99.90;;;;;;5059425;28;20044;-79
2023/06/10 00:09:15;;;;;;;266.02;254.32;;;14.80;99.90;;;;;;5055460;28;20043;-79
2023/06/10 00:11:41;;;;;;;237.30;226.82;;;14.80;99.90;;;;;;5074503;28;20123;-79
2023/06/10 00:14:07;;;;;;;215.40;205.85;;;14.80;99.90;;;;;;5098741;28;20040;-79
2023/06/10 00:16:33;;;;;;;234.57;223.98;;;14.70;99.90;;;;;;5070233;28;20384;-79
2023/06/10 00:19:01;;;;;;;215.98;206.57;;;14.70;99.90;;;;;;5089948;28;20081;-79
2023/06/10 00:21:37;;;;;;;181.48;173.57;;;14.70;99.90;;;;;;5074923;28;20139;-78
2023/06/10 00:24:05;;;;;;;181.85;173.85;;;14.70;99.90;;;;;;5078804;28;20519;-79
2023/06/10 00:26:30;;;;;;;177.75;169.68;;;14.80;99.90;;;;;;5082207;28;20048;-78
2023/06/10 00:28:56;;;;;;;178.85;171.05;;;14.80;99.90;;;;;;5065325;28;20473;-78
2023/06/10 00:31:22;;;;;;;185.52;177.27;;;14.80;99.90;;;;;;5071561;28;20043;-79
2023/06/10 00:33:47;;;;;;;177.43;169.70;;;14.70;99.90;;;;;;5072960;28;20047;-79
2023/06/10 00:36:13;;;;;;;175.65;167.98;;;14.70;99.90;;;;;;5068198;28;20043;-78
2023/06/10 00:38:40;;;;;;;170.07;162.32;;;14.60;99.90;;;;;;5073703;27;20035;-79
2023/06/10 00:41:06;;;;;;;171.48;163.70;;;14.50;99.90;;;;;;5060868;28;20446;-79
2023/06/10 00:43:32;;;;;;;171.55;163.88;;;14.50;99.90;;;;;;5080704;28;20028;-79
2023/06/10 00:45:58;;;;;;;172.68;164.88;;;14.40;99.90;;;;;;5063398;28;20055;-79
2023/06/10 00:48:24;;;;;;;175.43;167.65;;;14.30;99.90;;;;;;5079066;28;20561;-78
2023/06/10 00:50:50;;;;;;;169.48;161.65;;;14.30;99.90;;;;;;5065878;28;20051;-79
2023/06/10 00:53:16;;;;;;;172.57;164.85;;;14.20;99.90;;;;;;5095793;27;20046;-79
2023/06/10 00:55:42;;;;;;;147.55;140.75;;;14.20;99.90;;;;;;5061485;28;20118;-78
2023/06/10 00:58:08;;;;;;;175.73;167.80;;;14.20;99.90;;;;;;5086953;28;20035;-78
2023/06/10 01:00:34;;;;;;;133.40;127.30;;;14.10;99.90;;;;;;5069657;28;20077;-79
2023/06/10 01:03:00;;;;;;;134.45;128.30;;;14.10;99.90;;;;;;5065247;28;20044;-78
2023/06/10 01:05:26;;;;;;;143.80;137.20;;;14.10;99.90;;;;;;5073503;28;20048;-79
2023/06/10 01:08:04;;;;;;;142.55;135.93;;;14.00;99.90;;;;;;5072091;28;20043;-79
2023/06/10 01:10:51;;;;;;;131.88;125.80;;;14.00;99.90;;;;;;5079081;28;20044;-79
2023/06/10 01:13:18;;;;;;;135.82;129.27;;;14.00;99.90;;;;;;5056424;28;20039;-79
2023/06/10 01:15:44;;;;;;;138.85;132.20;;;14.00;99.90;;;;;;5066541;28;20112;-79
2023/06/10 01:18:14;;;;;;;135.70;129.60;;;14.00;99.90;;;;;;5088131;28;20039;-79
2023/06/10 01:20:42;;;;;;;115.28;109.82;;;14.00;99.90;;;;;;5083666;28;20110;-78
2023/06/10 01:23:10;;;;;;;116.70;111.28;;;14.00;99.90;;;;;;5066460;28;20139;-79
2023/06/10 01:26:00;;;;;;;122.30;116.68;;;14.00;99.90;;;;;;5085384;28;20062;-79
2023/06/10 01:29:11;;;;;;;121.43;115.68;;;13.90;99.90;;;;;;5089210;28;20062;-79
2023/06/10 01:31:55;;;;;;;102.95;97.93;;;13.80;99.90;;;;;;5053960;28;20495;-79
2023/06/10 01:34:24;;;;;;;101.40;96.55;;;13.80;99.90;;;;;;5079397;28;20039;-79
2023/06/10 01:36:50;;;;;;;117.25;111.85;;;13.70;99.90;;;;;;5083412;28;20122;-79
2023/06/10 01:39:20;;;;;;;118.93;113.32;;;13.70;99.90;;;;;;5084102;28;20486;-79
2023/06/10 01:41:48;;;;;;;108.60;103.53;;;13.70;99.90;;;;;;5056858;28;20036;-79
2023/06/10 01:44:19;;;;;;;117.07;111.20;;;13.60;99.90;;;;;;5065066;28;20043;-79
2023/06/10 01:46:44;;;;;;;106.63;101.53;;;13.60;99.90;;;;;;5068147;28;20359;-77
2023/06/10 01:49:10;;;;;;;117.43;111.82;;;13.50;99.90;;;;;;5085422;28;20032;-78
2023/06/10 01:51:36;;;;;;;115.65;110.15;;;13.50;99.90;;;;;;5070268;28;20153;-79
2023/06/10 01:54:01;;;;;;;119.22;113.38;;;13.50;99.90;;;;;;5081761;28;20039;-79
2023/06/10 01:56:27;;;;;;;119.45;113.78;;;13.50;99.90;;;;;;5073364;28;20115;-78
2023/06/10 01:58:55;;;;;;;124.28;118.40;;;13.50;99.90;;;;;;5078203;28;20047;-80
2023/06/10 02:01:21;;;;;;;115.03;109.50;;;13.50;99.90;;;;;;5069987;28;20036;-79
2023/06/10 02:03:46;;;;;;;111.25;105.80;;;13.40;99.90;;;;;;5092287;28;20479;-78
2023/06/10 02:06:12;;;;;;;112.90;107.38;;;13.40;99.90;;;;;;5090669;28;20983;-79
2023/06/10 02:08:38;;;;;;;105.25;100.00;;;13.40;99.90;;;;;;5092958;28;20048;-79
2023/06/10 02:11:03;;;;;;;102.28;97.10;;;13.40;99.90;;;;;;5079670;28;20102;-80
2023/06/10 02:13:29;;;;;;;93.70;89.05;;;13.40;99.90;;;;;;5074784;28;20419;-77
2023/06/10 02:15:55;;;;;;;105.43;100.35;;;13.40;99.90;;;;;;5072821;28;20047;-78
2023/06/10 02:18:20;;;;;;;113.97;108.25;;;13.40;99.90;;;;;;5076039;28;20047;-79
2023/06/10 02:20:46;;;;;;;124.80;119.00;;;13.40;99.90;;;;;;5087321;28;20478;-79
2023/06/10 02:23:12;;;;;;;114.25;108.82;;;13.40;99.90;;;;;;5088446;28;20059;-79
2023/06/10 02:25:38;;;;;;;95.53;90.90;;;13.40;99.90;;;;;;5071785;28;20035;-78
2023/06/10 02:28:04;;;;;;;99.75;95.13;;;13.40;99.90;;;;;;5092917;28;20567;-78
2023/06/10 02:30:30;;;;;;;86.68;82.43;;;13.30;99.90;;;;;;5075573;28;20048;-79
2023/06/10 02:32:56;;;;;;;83.75;79.78;;;13.40;99.90;;;;;;5088479;28;20043;-78
2023/06/10 02:35:22;;;;;;;90.55;85.90;;;13.40;99.90;;;;;;5090661;28;20082;-79
2023/06/10 02:37:48;;;;;;;92.53;88.03;;;13.30;99.90;;;;;;5064972;28;20046;-79
2023/06/10 02:40:13;;;;;;;88.28;83.93;;;13.20;99.90;;;;;;5071084;28;20036;-79
2023/06/10 02:42:39;;;;;;;88.10;83.78;;;13.30;99.90;;;;;;5088149;28;20084;-79
2023/06/10 02:45:05;;;;;;;86.13;82.00;;;13.20;99.90;;;;;;5075988;28;20479;-78
2023/06/10 02:47:31;;;;;;;90.07;85.78;;;13.20;99.90;;;;;;5083699;28;20074;-79
2023/06/10 02:49:57;;;;;;;91.43;86.97;;;13.30;99.90;;;;;;5082568;28;20047;-79
2023/06/10 02:52:22;;;;;;;91.15;86.63;;;13.20;99.90;;;;;;5077614;27;20518;-79
2023/06/10 02:54:48;;;;;;;87.63;83.35;;;13.20;99.90;;;;;;5091804;28;20415;-79
2023/06/10 02:57:14;;;;;;;93.07;88.75;;;13.30;99.90;;;;;;5093714;28;20035;-79
2023/06/10 02:59:40;;;;;;;103.75;99.00;;;13.20;99.90;;;;;;5069255;28;20962;-79
2023/06/10 03:02:06;;;;;;;92.30;87.78;;;13.20;99.90;;;;;;5092343;28;20040;-78
2023/06/10 03:04:32;;;;;;;99.95;95.25;;;13.20;99.90;;;;;;5082976;28;20441;-78
2023/06/10 03:07:00;;;;;;;86.18;82.03;;;13.20;99.90;;;;;;5091954;28;20461;-79
2023/06/10 03:09:26;;;;;;;83.78;79.78;;;13.10;99.90;;;;;;5091344;28;20064;-78
2023/06/10 03:11:51;;;;;;;85.40;80.80;;;13.10;99.90;;;;;;5088784;28;20733;-78
2023/06/10 03:14:17;;;;;;;75.55;71.57;;;13.10;99.90;;;;;;5089356;28;20522;-80
2023/06/10 03:16:44;;;;;;;90.53;86.00;;;13.00;99.90;;;;;;5077655;28;20419;-78
2023/06/10 03:19:09;;;;;;;96.00;91.40;;;13.00;99.90;;;;;;5086794;28;20036;-78
2023/06/10 03:21:37;;;;;;;97.80;93.15;;;12.90;99.90;;;;;;5074790;28;20058;-79
2023/06/10 03:24:03;;;;;;;95.65;90.93;;;12.90;99.90;;;;;;5086797;28;20040;-79
2023/06/10 03:26:29;;;;;;;104.55;99.60;;;12.90;99.90;;;;;;5075414;28;20070;-79
2023/06/10 03:28:55;;;;;;;90.88;86.38;;;12.90;99.90;;;;;;5084859;28;20530;-78
2023/06/10 03:31:20;;;;;;;98.28;93.32;;;12.90;99.90;;;;;;5103489;28;20084;-79
2023/06/10 03:33:46;;;;;;;117.18;111.72;;;12.90;99.90;;;;;;5091873;28;20078;-78
2023/06/10 03:36:11;;;;;;;141.35;134.77;;;12.90;99.90;;;;;;5074906;28;20048;-79
2023/06/10 03:38:37;;;;;;;92.07;87.60;;;12.90;99.90;;;;;;5084045;28;20035;-78
2023/06/10 03:41:03;;;;;;;111.82;106.25;;;12.80;99.90;;;;;;5094169;28;20666;-78
2023/06/10 03:43:31;;;;;;;96.05;91.45;;;12.80;99.90;;;;;;5070924;28;20116;-78
2023/06/10 03:45:56;;;;;;;92.93;88.57;;;12.80;99.90;;;;;;5091384;28;20078;-78
2023/06/10 03:48:22;;;;;;;87.90;83.65;;;12.80;99.90;;;;;;5066096;28;20499;-78
2023/06/10 03:50:50;;;;;;;99.50;94.72;;;12.80;99.90;;;;;;5081392;28;20154;-78
2023/06/10 03:53:16;;;;;;;117.63;111.90;;;12.80;99.90;;;;;;5103079;27;20482;-78
2023/06/10 03:55:42;;;;;;;98.72;93.85;;;12.80;99.90;;;;;;5090022;28;20043;-78
2023/06/10 03:58:07;;;;;;;110.18;105.13;;;12.80;99.90;;;;;;5084071;28;20494;-78
2023/06/10 04:00:41;;;;;;;105.70;100.68;;;12.80;99.90;;;;;;5087150;28;20063;-78
2023/06/10 04:03:14;;;;;;;150.80;143.90;;;12.90;99.90;;;;;;5074277;28;20508;-79
2023/06/10 04:05:41;;;;;;;118.80;113.13;;;12.90;99.90;;;;;;5081367;28;20297;-77
2023/06/10 04:08:07;;;;;;;165.38;157.73;;;12.90;99.90;;;;;;5080713;28;20147;-77
2023/06/10 04:10:33;;;;;;;175.05;167.07;;;12.90;99.90;;;;;;5087937;28;20495;-78
2023/06/10 04:12:59;;;;;;;258.48;247.15;;;12.90;99.90;;;;;;5087959;28;20043;-78
2023/06/10 04:15:25;;;;;;;258.10;246.55;;;13.00;99.90;;;;;;5085247;28;20490;-78
2023/06/10 04:17:51;;;;;;;259.70;247.95;;;13.00;99.90;;;;;;5090621;28;20526;-77
2023/06/10 04:20:16;;;;;;;247.02;235.55;;;13.10;99.90;;;;;;5072065;28;20028;-79
2023/06/10 04:22:42;;;;;;;294.52;281.45;;;13.10;99.90;;;;;;5095207;28;20552;-79
2023/06/10 04:25:09;;;;;;;234.38;223.98;;;13.20;99.90;;;;;;5089158;28;20725;-78
2023/06/10 04:27:35;;;;;;;218.93;209.13;;;13.30;99.90;;;;;;5069518;28;20952;-76
2023/06/10 04:30:01;;;;;;;211.45;201.82;;;13.50;99.90;;;;;;5068573;28;20056;-78
2023/06/10 04:32:27;;;;;;;205.27;195.90;;;13.70;99.90;;;;;;5092638;28;20047;-79
2023/06/10 04:34:52;;;;;;;207.35;198.25;;;13.80;99.90;;;;;;5064784;28;20127;-78
2023/06/10 04:37:18;;;;;;;205.32;196.15;;;13.80;99.90;;;;;;5061891;28;20071;-78
2023/06/10 04:39:44;;;;;;;197.32;188.02;;;13.90;99.90;;;;;;5045751;28;20032;-79
2023/06/10 04:42:10;;;;;;;193.90;185.27;;;14.00;99.90;;;;;;5069796;28;20105;-78
2023/06/10 04:44:35;;;;;;;179.98;171.48;;;14.00;99.90;;;;;;5066489;28;20036;-80
2023/06/10 04:47:01;;;;;;;187.27;179.07;;;13.90;99.90;;;;;;5052673;28;20777;-79
2023/06/10 04:49:28;;;;;;;180.25;172.20;;;14.00;99.90;;;;;;5063017;28;20049;-79
2023/06/10 04:51:54;;;;;;;173.70;165.80;;;14.00;99.90;;;;;;5065924;28;20047;-78
2023/06/10 04:54:19;;;;;;;159.18;151.82;;;14.10;99.90;;;;;;5054482;28;20044;-79
2023/06/10 04:56:46;;;;;;;163.48;156.27;;;14.10;99.90;;;;;;5070453;28;20044;-79
2023/06/10 04:59:14;;;;;;;150.60;143.77;;;14.20;99.90;;;;;;5042726;28;20131;-79
2023/06/10 05:01:39;;;;;;;152.10;144.70;;;14.30;99.90;;;;;;5065000;28;20603;-78
2023/06/10 05:04:05;;;;;;;168.68;161.13;;;14.50;99.90;;;;;;5053540;28;20043;-80
2023/06/10 05:06:31;;;;;;;170.30;162.48;;;14.60;99.90;;;;;;5067942;28;20130;-79
2023/06/10 05:08:56;;;;;;;158.85;151.75;;;14.70;99.90;;;;;;5070315;28;20055;-77
2023/06/10 05:11:22;;;;;;;172.30;164.60;;;14.80;99.90;;;;;;5055397;28;20040;-78
2023/06/10 05:13:48;;;;;;;158.02;150.55;;;14.80;99.90;;;;;;5042616;28;20378;-78
2023/06/10 05:16:15;;;;;;;188.25;179.68;;;15.10;99.90;;;;;;5036939;28;20059;-76
2023/06/10 05:18:41;;;;;;;187.15;178.38;;;15.40;99.90;;;;;;5061284;28;20032;-79
2023/06/10 05:21:07;;;;;;;151.10;144.25;;;15.70;99.90;;;;;;5062485;28;20036;-78
2023/06/10 05:23:33;;;;;;;177.95;169.90;;;15.70;99.90;;;;;;5065364;28;20059;-78
2023/06/10 05:25:59;;;;;;;196.30;187.40;;;15.60;99.90;;;;;;5069811;28;20052;-80
2023/06/10 05:28:25;;;;;;;229.32;218.98;;;15.70;99.90;;;;;;5078957;28;20890;-79
2023/06/10 05:30:51;;;;;;;223.13;213.23;;;15.60;99.90;;;;;;5058267;28;20435;-80
2023/06/10 05:33:17;;;;;;;217.02;207.38;;;15.60;99.90;;;;;;5065354;28;20032;-80
2023/06/10 05:35:43;;;;;;;216.45;206.55;;;15.70;99.90;;;;;;5050519;28;20079;-79
2023/06/10 05:38:08;;;;;;;266.70;254.73;;;15.80;99.90;;;;;;5048284;28;20040;-80
2023/06/10 05:40:34;;;;;;;279.73;266.70;;;15.80;99.90;;;;;;5072333;28;20031;-79
2023/06/10 05:43:00;;;;;;;341.85;325.73;;;15.90;99.90;;;;;;5052508;28;20098;-79
2023/06/10 05:45:25;;;;;;;360.27;342.95;;;15.90;99.90;;;;;;5051910;28;20492;-79
2023/06/10 05:47:51;;;;;;;313.08;298.65;;;16.00;99.90;;;;;;5066413;28;20447;-79
2023/06/10 05:50:17;;;;;;;291.80;278.30;;;16.10;99.90;;;;;;5044510;28;20051;-79
2023/06/10 05:52:42;;;;;;;346.40;330.10;;;16.20;99.90;;;;;;5068711;28;20074;-81
2023/06/10 05:55:09;;;;;;;414.60;394.67;;;16.30;99.90;;;;;;5058597;28;20420;-80
2023/06/10 05:57:34;;;;;;;353.60;337.08;;;16.40;99.90;;;;;;5061313;28;20068;-79
2023/06/10 06:00:00;;;;;;;208.63;199.32;;;16.50;99.90;;;;;;5062640;28;20522;-80
2023/06/10 06:02:26;;;;;;;149.15;142.27;;;16.70;99.90;;;;;;5049495;28;20040;-80
2023/06/10 06:04:51;;;;;;;128.73;122.72;;;16.80;99.90;;;;;;5050549;28;20131;-79
2023/06/10 06:07:20;;;;;;;112.68;107.35;;;16.90;99.90;;;;;;5051098;28;20074;-79
2023/06/10 06:09:46;;;;;;;116.85;111.32;;;16.90;99.90;;;;;;5076153;28;20047;-79
2023/06/10 06:12:12;;;;;;;98.65;93.85;;;16.90;99.90;;;;;;5069876;28;20158;-79
2023/06/10 06:14:41;;;;;;;100.75;95.88;;;17.00;99.90;;;;;;5050032;28;20555;-80
2023/06/10 06:17:07;;;;;;;66.75;63.13;;;17.10;99.90;;;;;;5051492;28;20450;-79
2023/06/10 06:19:33;;;;;;;76.07;72.05;;;17.40;99.90;;;;;;5071395;28;20122;-81
2023/06/10 06:21:59;;;;;;;68.70;64.85;;;18.20;99.90;;;;;;5062358;28;20090;-79
2023/06/10 06:24:24;;;;;;;63.60;60.15;;;19.50;99.90;;;;;;5062686;28;20036;-81
2023/06/10 06:26:50;;;;;;;83.35;78.90;;;20.60;99.90;;;;;;5060669;28;20122;-80
2023/06/10 06:29:16;;;;;;;95.43;90.78;;;21.40;99.90;;;;;;5066289;28;20055;-81
2023/06/10 06:31:41;;;;;;;103.20;98.22;;;22.00;99.90;;;;;;5070520;28;20067;-80
2023/06/10 06:34:07;;;;;;;123.20;117.32;;;22.50;99.90;;;;;;5064184;28;20051;-81
2023/06/10 06:36:32;;;;;;;130.82;124.50;;;22.90;99.90;;;;;;5063643;28;20097;-81
2023/06/10 06:38:58;;;;;;;51.25;48.45;;;23.70;99.90;;;;;;5068422;28;20044;-81
2023/06/10 06:41:27;;;;;;;45.20;42.25;;;24.50;99.90;;;;;;5052777;28;20533;-80
2023/06/10 06:43:54;;;;;;;49.13;46.22;;;24.80;99.90;;;;;;5068220;28;20479;-80
2023/06/10 06:46:21;;;;;;;47.20;44.13;;;25.10;99.90;;;;;;5057994;28;20055;-82
2023/06/10 06:48:46;;;;;;;57.00;53.53;;;25.40;99.90;;;;;;5065253;28;20052;-82
2023/06/10 06:51:12;;;;;;;86.68;82.30;;;26.00;99.90;;;;;;5072885;28;20143;-81
2023/06/10 06:53:44;;;;;;;63.22;59.97;;;25.90;99.90;;;;;;5072460;28;20130;-81
2023/06/10 06:56:12;;;;;;;121.88;116.07;;;25.80;99.90;;;;;;5055746;28;20047;-81
2023/06/10 06:58:38;;;;;;;67.40;63.97;;;26.00;99.90;;;;;;5064408;28;20044;-82
2023/06/10 07:01:04;;;;;;;622.90;578.08;;;26.20;99.90;;;;;;5066685;28;20049;-80
2023/06/10 07:03:30;;;;;;;134.90;127.07;;;26.30;99.90;;;;;;5053558;28;20043;-81
2023/06/10 07:05:55;;;;;;;338.85;316.83;;;26.60;99.90;;;;;;5077946;28;20040;-80
2023/06/10 07:08:21;;;;;;;126.57;120.65;;;26.60;99.90;;;;;;5071300;28;20047;-81
2023/06/10 07:10:46;;;;;;;77.85;74.15;;;26.40;99.90;;;;;;5055062;28;20105;-80
2023/06/10 07:13:12;;;;;;;85.43;81.28;;;26.30;99.90;;;;;;5045736;28;20042;-83
2023/06/10 07:15:38;;;;;;;43.63;40.78;;;26.20;99.90;;;;;;5063873;28;20048;-81
2023/06/10 07:18:04;;;;;;;29.60;27.58;;;26.30;99.90;;;;;;5051433;28;20036;-79
2023/06/10 07:20:30;;;;;;;19.35;17.90;;;26.50;99.90;;;;;;5065954;28;20523;-81
2023/06/10 07:22:56;;;;;;;21.77;20.17;;;26.50;99.90;;;;;;5070393;28;20131;-82
2023/06/10 07:25:21;;;;;;;26.10;24.30;;;26.70;99.90;;;;;;5071226;28;20044;-82
2023/06/10 07:27:47;;;;;;;22.45;20.85;;;26.80;99.90;;;;;;5054029;28;20499;-81
2023/06/10 07:30:13;;;;;;;40.63;38.22;;;27.00;99.90;;;;;;5070696;28;20328;-80
2023/06/10 07:32:38;;;;;;;34.05;31.98;;;27.10;99.90;;;;;;5072015;28;20115;-79
2023/06/10 07:35:08;;;;;;;77.28;73.25;;;26.80;99.90;;;;;;5088835;28;20036;-80
2023/06/10 07:37:33;;;;;;;65.20;61.80;;;26.40;99.90;;;;;;5071444;28;20074;-79
2023/06/10 07:39:59;;;;;;;78.60;74.80;;;26.50;99.90;;;;;;5080239;28;20083;-81
2023/06/10 07:42:24;;;;;;;153.25;146.25;;;26.80;99.90;;;;;;5059286;28;20028;-81
2023/06/10 07:44:50;;;;;;;100.35;95.40;;;27.00;99.90;;;;;;5075130;28;20158;-82
2023/06/10 07:47:16;;;;;;;177.05;168.98;;;27.10;99.90;;;;;;5089590;28;20142;-82
2023/06/10 07:49:42;;;;;;;151.85;144.88;;;27.30;99.90;;;;;;5064701;28;20101;-82
2023/06/10 07:52:08;;;;;;;133.10;126.90;;;27.40;99.30;;;;;;5071171;28;20507;-82
2023/06/10 07:54:33;;;;;;;164.10;156.55;;;27.60;99.90;;;;;;5083243;28;20055;-80
2023/06/10 07:56:59;;;;;;;167.85;159.70;;;27.60;99.90;;;;;;5087910;28;20043;-81
2023/06/10 07:59:26;;;;;;;75.88;72.20;;;27.90;99.90;;;;;;5081713;28;20518;-81
2023/06/10 08:01:52;;;;;;;65.53;62.03;;;27.40;98.00;;;;;;5091891;28;20335;-82
2023/06/10 08:04:18;;;;;;;81.07;77.00;;;27.30;97.50;;;;;;5082900;28;20059;-82
2023/06/10 08:06:44;;;;;;;96.75;92.13;;;27.40;98.30;;;;;;5073315;28;20047;-81
2023/06/10 08:09:09;;;;;;;101.20;96.30;;;27.60;99.60;;;;;;5085080;28;20853;-80
2023/06/10 08:11:35;;;;;;;86.53;82.43;;;27.30;96.40;;;;;;5074606;28;20040;-81
2023/06/10 08:14:01;;;;;;;88.90;84.55;;;26.90;97.70;;;;;;5090226;28;20094;-82
2023/06/10 08:16:27;;;;;;;141.93;135.48;;;26.80;99.80;;;;;;5076777;28;20076;-81
2023/06/10 08:18:52;;;;;;;95.35;90.80;;;27.10;99.90;;;;;;5091023;28;20044;-81
2023/06/10 08:21:19;;;;;;;48.63;45.88;;;27.10;99.90;;;;;;5070843;28;20039;-82
2023/06/10 08:23:45;;;;;;;103.38;98.38;;;27.40;99.90;;;;;;5091687;28;20040;-81
2023/06/10 08:26:10;;;;;;;108.97;103.95;;;27.40;98.80;;;;;;5069639;28;20044;-82
2023/06/10 08:28:36;;;;;;;49.85;46.80;;;27.20;99.40;;;;;;5074478;28;20070;-81
2023/06/10 08:31:02;;;;;;;51.60;48.70;;;27.00;98.20;;;;;;5070827;28;20148;-82
2023/06/10 08:33:27;;;;;;;99.72;95.18;;;27.00;99.90;;;;;;5084470;28;20040;-80
2023/06/10 08:35:53;;;;;;;28.10;26.33;;;27.00;99.90;;;;;;5088003;28;20929;-82
2023/06/10 08:38:18;;;;;;;82.03;78.03;;;27.10;99.90;;;;;;5073559;28;20038;-81
2023/06/10 08:40:44;;;;;;;86.13;81.93;;;27.10;99.90;;;;;;5085824;28;20027;-80
2023/06/10 08:43:33;;;;;;;50.92;48.13;;;27.10;99.90;;;;;;5072892;28;20139;-81
2023/06/10 08:46:01;;;;;;;26.98;25.23;;;27.00;97.90;;;;;;5090344;28;20048;-82
2023/06/10 08:48:30;;;;;;;84.80;80.72;;;27.20;99.90;;;;;;5088165;28;20043;-81
2023/06/10 08:50:57;;;;;;;95.28;90.80;;;27.60;99.90;;;;;;5089173;28;20043;-82
2023/06/10 08:53:24;;;;;;;68.65;65.20;;;27.80;99.90;;;;;;5089351;28;20058;-82
2023/06/10 08:55:53;;;;;;;54.28;51.22;;;28.00;99.90;;;;;;5067959;28;20036;-82
2023/06/10 08:58:20;;;;;;;16.80;15.38;;;28.20;99.90;;;;;;5090128;28;20467;-82
2023/06/10 09:00:46;;;;;;;22.55;20.98;;;28.20;99.90;;;;;;5079677;28;20517;-81
2023/06/10 09:03:12;;;;;;;32.38;30.27;;;28.20;99.10;;;;;;5073138;28;20039;-82
2023/06/10 09:05:38;;;;;;;47.00;44.50;;;28.10;99.90;;;;;;5072303;28;20495;-80
2023/06/10 09:08:07;;;;;;;26.15;24.45;;;28.30;99.20;;;;;;5092106;28;20043;-79
2023/06/10 09:10:33;;;;;;;19.88;18.17;;;28.00;99.80;;;;;;5068061;28;20040;-80
2023/06/10 09:12:59;;;;;;;60.72;57.58;;;27.90;99.60;;;;;;5069237;28;20050;-80
2023/06/10 09:15:25;;;;;;;40.80;38.65;;;27.80;99.40;;;;;;5083162;28;20479;-79
2023/06/10 09:17:51;;;;;;;115.75;110.35;;;27.80;99.90;;;;;;5072386;28;20031;-80
2023/06/10 09:20:17;;;;;;;114.68;109.57;;;27.80;98.20;;;;;;5061140;28;20044;-80
2023/06/10 09:22:43;;;;;;;80.63;76.75;;;27.80;96.30;;;;;;5090194;28;20035;-81
2023/06/10 09:25:11;;;;;;;154.98;147.93;;;27.70;97.60;;;;;;5083585;28;20368;-80
2023/06/10 09:27:53;;;;;;;30.90;28.95;;;27.80;98.70;;;;;;5089546;28;20074;-83
2023/06/10 09:30:33;;;;;;;133.60;127.18;;;27.70;98.70;;;;;;5089469;28;20067;-81
2023/06/10 09:33:01;;;;;;;165.18;157.85;;;27.50;94.70;;;;;;5082405;28;20043;-80
2023/06/10 09:35:27;;;;;;;25.75;23.95;;;27.30;96.30;;;;;;5083539;28;20081;-82
2023/06/10 09:37:55;;;;;;;17.10;15.55;;;27.20;99.90;;;;;;5106589;28;20188;-82
2023/06/10 09:40:20;;;;;;;53.75;51.08;;;27.20;99.80;;;;;;5078165;28;20082;-81
2023/06/10 09:42:53;;;;;;;20.83;19.25;;;27.20;99.90;;;;;;5084545;28;20059;-82
2023/06/10 09:45:19;;;;;;;31.90;29.75;;;27.20;99.90;;;;;;5079033;28;20046;-81
2023/06/10 09:47:55;;;;;;;49.50;46.70;;;27.30;99.90;;;;;;5103994;28;20538;-80
2023/06/10 09:50:21;;;;;;;163.52;156.15;;;27.50;98.10;;;;;;5073916;28;20070;-79
2023/06/10 09:52:50;;;;;;;101.15;96.30;;;27.30;96.20;;;;;;5074220;28;20076;-80
2023/06/10 09:55:16;;;;;;;127.25;121.53;;;26.80;97.50;;;;;;5088098;28;20070;-80
2023/06/10 09:57:47;;;;;;;182.02;173.85;;;26.60;96.70;;;;;;5084762;28;20350;-81
2023/06/10 10:00:14;;;;;;;44.22;41.83;;;26.50;97.90;;;;;;5070681;28;20031;-80
2023/06/10 10:02:53;;;;;;;145.57;139.10;;;26.70;99.90;;;;;;5087736;28;20039;-80
2023/06/10 10:05:23;;;;;;;26.13;24.48;;;27.00;98.20;;;;;;5091041;28;20406;-80
2023/06/10 10:07:49;;;;;;;195.25;186.55;;;27.20;99.90;;;;;;5069201;28;20040;-81
2023/06/10 10:10:17;;;;;;;33.47;31.40;;;27.30;99.90;;;;;;5070966;28;20046;-81
2023/06/10 10:12:45;;;;;;;144.52;137.75;;;27.30;99.90;;;;;;5071981;28;20039;-80
2023/06/10 10:15:11;;;;;;;183.02;174.98;;;27.30;97.40;;;;;;5083711;28;20124;-81
2023/06/10 10:17:42;;;;;;;113.35;107.93;;;27.20;97.20;;;;;;5063834;28;20738;-80
2023/06/10 10:20:12;;;;;;;74.22;70.70;;;27.10;96.90;;;;;;5087538;27;20058;-81
2023/06/10 10:22:40;;;;;;;160.85;153.50;;;26.90;97.10;;;;;;5064731;28;20075;-81
2023/06/10 10:25:16;;;;;;;136.10;129.77;;;26.90;99.90;;;;;;5080443;28;20051;-81
2023/06/10 10:27:57;;;;;;;124.20;118.30;;;27.00;93.70;;;;;;5069498;28;20051;-82
2023/06/10 10:30:24;;;;;;;180.35;172.50;;;27.10;95.80;;;;;;5095009;28;20048;-83
2023/06/10 10:33:09;;;;;;;160.65;153.48;;;27.00;97.50;;;;;;5096908;27;20039;-82
2023/06/10 10:35:37;;;;;;;156.05;149.23;;;27.10;99.50;;;;;;5082369;27;20044;-80
2023/06/10 10:38:03;;;;;;;154.25;147.23;;;27.30;98.40;;;;;;5108141;27;20046;-81
2023/06/10 10:40:30;;;;;;;129.70;123.70;;;27.50;96.80;;;;;;5084738;28;20069;-81
2023/06/10 10:42:57;;;;;;;166.20;158.77;;;27.70;98.00;;;;;;5089017;28;20040;-80
2023/06/10 10:45:23;;;;;;;74.53;70.65;;;27.80;98.30;;;;;;5071063;27;20099;-81
2023/06/10 10:47:53;;;;;;;88.32;84.13;;;27.80;96.70;;;;;;5084418;28;20442;-82
2023/06/10 10:50:20;;;;;;;70.07;66.63;;;27.90;96.60;;;;;;5061519;28;20487;-81
2023/06/10 10:52:58;;;;;;;124.78;119.03;;;28.00;97.00;;;;;;5065284;28;20040;-81
2023/06/10 10:55:24;;;;;;;100.05;95.40;;;28.00;96.40;;;;;;5070536;28;20122;-78
2023/06/10 10:57:57;;;;;;;143.98;137.20;;;27.80;95.30;;;;;;5068191;28;20754;-81
2023/06/10 11:00:44;;;;;;;87.15;82.97;;;27.60;96.30;;;;;;5084697;28;20040;-82
2023/06/10 11:03:14;;;;;;;130.13;123.75;;;27.50;97.60;;;;;;5102493;28;20082;-82
2023/06/10 11:05:44;;;;;;;66.78;63.55;;;27.50;97.10;;;;;;5084469;28;20100;-81
2023/06/10 11:08:10;;;;;;;22.65;21.25;;;27.60;99.90;;;;;;5069305;28;20093;-81
2023/06/10 11:10:38;;;;;;;80.90;77.03;;;27.70;96.90;;;;;;5099265;28;20494;-80
2023/06/10 11:13:13;;;;;;;48.65;45.92;;;27.80;97.00;;;;;;5071469;28;20067;-82
2023/06/10 11:15:50;;;;;;;126.35;120.70;;;27.80;94.50;;;;;;5067524;28;20036;-81
2023/06/10 11:18:27;;;;;;;53.97;51.28;;;27.60;96.20;;;;;;5073535;28;20063;-81
2023/06/10 11:21:12;;;;;;;23.42;21.70;;;27.60;93.40;;;;;;5065098;28;20093;-79
2023/06/10 11:23:41;;;;;;;18.65;17.15;;;27.70;96.60;;;;;;5062459;28;20035;-79
2023/06/10 11:26:17;;;;;;;67.38;64.03;;;27.80;92.30;;;;;;5072299;27;20047;-81
2023/06/10 11:28:46;;;;;;;21.70;20.10;;;27.90;98.30;;;;;;5074345;28;20056;-81
2023/06/10 11:31:29;;;;;;;22.23;20.73;;;28.00;95.30;;;;;;5071338;28;20051;-80
2023/06/10 11:34:06;;;;;;;24.00;22.60;;;28.10;91.50;;;;;;5040670;28;20114;-81
2023/06/10 11:36:34;;;;;;;69.40;65.93;;;28.20;93.50;;;;;;5064151;28;20031;-82
2023/06/10 11:39:03;;;;;;;25.42;23.75;;;28.20;96.20;;;;;;5063760;28;20518;-79
2023/06/10 11:41:30;;;;;;;29.70;27.92;;;28.40;96.50;;;;;;5067095;28;21665;-81
2023/06/10 11:44:00;;;;;;;24.73;23.02;;;28.50;95.40;;;;;;5061074;28;20036;-80
2023/06/10 11:46:27;;;;;;;20.00;18.60;;;28.50;95.20;;;;;;5073400;28;20484;-80
2023/06/10 11:48:58;;;;;;;29.15;27.25;;;28.50;91.90;;;;;;5050041;28;20375;-82
2023/06/10 11:51:29;;;;;;;36.58;34.38;;;28.50;91.60;;;;;;5068746;28;20040;-81
2023/06/10 11:53:55;;;;;;;12.23;10.98;;;28.70;93.10;;;;;;5069786;28;20054;-81
2023/06/10 11:56:21;;;;;;;51.17;48.38;;;28.80;92.70;;;;;;5067299;28;20490;-81
2023/06/10 11:58:57;;;;;;;26.85;25.00;;;28.80;91.80;;;;;;5084883;28;20071;-80
2023/06/10 12:01:23;;;;;;;46.13;43.75;;;28.90;83.80;;;;;;5053373;28;20043;-81
2023/06/10 12:04:09;;;;;;;1011.20;438.67;;;28.90;91.10;;;;;;5069993;28;20036;-80
2023/06/10 12:06:47;;;;;;;1543.75;559.03;;;29.00;84.40;;;;;;5044800;28;20074;-80
2023/06/10 12:09:25;;;;;;;1999.90;798.08;;;29.20;91.90;;;;;;5053811;28;20059;-80
2023/06/10 12:11:59;;;;;;;1999.90;754.17;;;29.00;81.40;;;;;;5068063;28;20040;-81
2023/06/10 12:14:43;;;;;;;;;;;29.20;91.70;;;;;;5069220;28;20059;-80
2023/06/10 12:17:10;;;;;;;1999.90;891.13;;;29.30;87.50;;;;;;5077713;28;20479;-80
2023/06/10 12:19:40;;;;;;;1040.90;284.10;;;29.30;92.10;;;;;;5094514;28;20266;-80